Time;durP1;ratioP1;P1;durP2;ratioP2;P2;SDS_P1;SDS_P2;PMS_P1;PMS_P2;Temp;Humidity;BMP_temperature;BMP_pressure;BME280_temperature;BME280_humidity;BME280_pressure;Samples;Min_cycle;Max_cycle;Signal;HPM_P1;HPM_P2
2022/08/05 00:00:10;;;;;;;7.55;2.85;;;;;;;19.72;71.60;101633.00;5039674;28;20037;-78
2022/08/05 00:02:36;;;;;;;7.97;3.05;;;;;;;19.72;71.52;101633.00;5037950;28;20120;-77
2022/08/05 00:05:02;;;;;;;8.43;3.55;;;;;;;19.73;71.59;101638.22;5039494;28;20108;-77
2022/08/05 00:07:28;;;;;;;6.10;3.22;;;;;;;19.73;71.71;101634.72;5038610;28;20119;-77
2022/08/05 00:09:53;;;;;;;5.07;2.92;;;;;;;19.72;71.73;101636.50;5038496;28;20037;-78
2022/08/05 00:12:19;;;;;;;6.28;2.97;;;;;;;19.72;71.70;101636.50;5037775;28;20037;-77
2022/08/05 00:14:44;;;;;;;4.43;2.70;;;;;;;19.72;71.70;101636.50;5037963;28;20033;-77
2022/08/05 00:17:09;;;;;;;5.93;3.28;;;;;;;19.73;71.81;101632.06;5037904;28;20021;-78
2022/08/05 00:19:35;;;;;;;5.68;2.80;;;;;;;19.71;71.82;101628.63;5038937;28;20044;-77
2022/08/05 00:22:01;;;;;;;8.48;3.38;;;;;;;19.69;71.75;101627.88;5039128;28;20053;-78
2022/08/05 00:24:26;;;;;;;4.47;2.78;;;;;;;19.69;71.99;101639.34;5037744;28;20074;-77
2022/08/05 00:26:52;;;;;;;3.88;3.03;;;;;;;19.71;71.64;101650.72;5021159;28;20073;-77
2022/08/05 00:29:18;;;;;;;6.15;2.67;;;;;;;19.70;71.78;101648.16;5038760;28;20041;-78
2022/08/05 00:31:43;;;;;;;5.93;3.30;;;;;;;19.68;72.01;101650.09;5038907;28;20284;-77
2022/08/05 00:34:09;;;;;;;5.30;2.65;;;;;;;19.67;71.72;101649.25;5037093;28;20294;-77
2022/08/05 00:36:34;;;;;;;3.75;2.60;;;;;;;19.67;71.70;101643.09;5038596;28;20044;-78
2022/08/05 00:39:00;;;;;;;3.33;2.22;;;;;;;19.65;72.03;101640.53;5039132;28;20121;-78
2022/08/05 00:41:27;;;;;;;4.70;2.30;;;;;;;19.63;72.10;101645.09;5020886;28;20038;-77
2022/08/05 00:43:53;;;;;;;4.63;2.58;;;;;;;19.63;72.21;101649.53;5038711;28;20063;-78
2022/08/05 00:46:18;;;;;;;4.75;3.08;;;;;;;19.62;72.13;101653.16;5038390;28;20041;-77
2022/08/05 00:48:43;;;;;;;3.13;2.63;;;;;;;19.62;72.05;101650.50;5037439;28;20034;-77
2022/08/05 00:51:09;;;;;;;4.30;2.33;;;;;;;19.61;72.05;101643.47;5039263;28;20306;-77
2022/08/05 00:53:34;;;;;;;3.85;2.42;;;;;;;19.61;72.34;101640.81;5037037;28;20045;-78
2022/08/05 00:56:00;;;;;;;3.22;2.45;;;;;;;19.61;72.22;101647.00;5021056;28;20029;-78
2022/08/05 00:58:25;;;;;;;8.48;2.80;;;;;;;19.58;72.09;101649.00;5038042;28;20037;-78
2022/08/05 01:00:50;;;;;;;3.00;2.47;;;;;;;19.57;72.33;101653.44;5038579;28;20041;-77
2022/08/05 01:03:16;;;;;;;8.20;2.58;;;;;;;19.56;72.22;101646.44;5020255;28;20033;-78
2022/08/05 01:05:41;;;;;;;3.83;2.50;;;;;;;19.56;72.32;101646.44;5020535;28;20099;-77
2022/08/05 01:08:07;;;;;;;3.85;2.35;;;;;;;19.56;72.47;101651.75;5036959;28;20029;-77
2022/08/05 01:10:52;;;;;;;3.58;2.30;;;;;;;19.55;72.40;101655.34;5036679;28;20232;-77
2022/08/05 01:13:36;;;;;;;4.28;2.80;;;;;;;19.53;72.37;101668.72;5037989;28;20093;-78
2022/08/05 01:16:06;;;;;;;6.60;2.83;;;;;;;19.53;72.38;101676.69;5038732;28;20263;-77
2022/08/05 01:18:36;;;;;;;4.35;2.58;;;;;;;19.52;72.37;101683.00;5038058;28;20248;-77
2022/08/05 01:21:22;;;;;;;6.50;3.03;;;;;;;19.52;72.38;101672.34;5036938;28;20033;-78
2022/08/05 01:24:11;;;;;;;4.90;3.13;;;;;;;19.52;72.35;101677.69;5036503;28;20311;-77
2022/08/05 01:27:04;;;;;;;3.95;2.25;;;;;;;19.51;72.40;101683.94;5036231;28;20309;-78
2022/08/05 01:29:40;;;;;;;3.53;2.30;;;;;;;19.52;72.28;101692.78;5037416;28;20037;-77
2022/08/05 01:32:10;;;;;;;4.30;2.33;;;;;;;19.50;72.35;101692.88;5036721;28;20039;-78
2022/08/05 01:34:44;;;;;;;7.85;2.45;;;;;;;19.49;72.28;101701.78;5036319;28;20205;-77
2022/08/05 01:37:16;;;;;;;8.88;2.50;;;;;;;19.50;72.17;101710.59;5037768;28;20096;-77
2022/08/05 01:39:45;;;;;;;5.32;2.40;;;;;;;19.49;72.14;101703.59;5037630;28;20035;-78
2022/08/05 01:42:13;;;;;;;3.30;2.28;;;;;;;19.49;72.34;101700.94;5037407;28;20040;-78
2022/08/05 01:44:39;;;;;;;5.03;2.30;;;;;;;19.47;72.06;101695.72;5037045;28;20355;-77
2022/08/05 01:47:06;;;;;;;4.68;2.20;;;;;;;19.48;72.17;101696.56;5035690;28;20022;-77
2022/08/05 01:49:34;;;;;;;2.63;2.25;;;;;;;19.48;72.46;101700.09;5035596;28;20308;-77
2022/08/05 01:52:01;;;;;;;6.22;2.40;;;;;;;19.46;72.36;101693.16;5037274;28;20025;-77
2022/08/05 01:54:32;;;;;;;4.72;2.50;;;;;;;19.45;72.39;101692.31;5035681;28;20047;-78
2022/08/05 01:56:58;;;;;;;4.15;2.10;;;;;;;19.42;72.20;101673.91;5037635;28;20048;-77
2022/08/05 01:59:26;;;;;;;4.90;2.20;;;;;;;19.40;72.16;101677.63;5035676;28;20370;-77
2022/08/05 02:01:55;;;;;;;4.70;2.53;;;;;;;19.37;72.23;101674.22;5037510;28;20108;-78
2022/08/05 02:04:22;;;;;;;5.07;2.00;;;;;;;19.35;72.20;101660.16;5037069;28;20091;-78
2022/08/05 02:06:48;;;;;;;6.55;2.00;;;;;;;19.34;72.35;101652.31;5037027;28;20083;-78
2022/08/05 02:09:13;;;;;;;3.90;2.35;;;;;;;19.33;72.17;101656.75;5035730;28;20062;-77
2022/08/05 02:12:07;;;;;;;3.88;1.65;;;;;;;19.32;72.00;101654.22;5035456;28;20037;-77
2022/08/05 02:14:39;;;;;;;2.22;1.70;;;;;;;19.29;72.00;101646.44;5036457;28;20075;-77
2022/08/05 02:17:16;;;;;;;5.47;1.80;;;;;;;19.26;72.07;101655.44;5035690;28;20036;-78
2022/08/05 02:19:47;;;;;;;4.28;2.33;;;;;;;19.23;72.33;101660.97;5035488;28;20355;-77
2022/08/05 02:22:20;;;;;;;1.45;1.35;;;;;;;19.20;72.53;101652.34;5036600;28;20263;-78
2022/08/05 02:24:50;;;;;;;5.95;1.92;;;;;;;19.18;72.63;101649.78;5036730;28;20260;-77
2022/08/05 02:27:18;;;;;;;3.65;1.88;;;;;;;19.16;72.59;101654.34;5036339;28;20053;-77
2022/08/05 02:29:46;;;;;;;3.10;1.90;;;;;;;19.13;72.54;101649.22;5037086;28;20069;-77
2022/08/05 02:32:14;;;;;;;3.92;1.80;;;;;;;19.12;72.79;101652.84;5036289;28;20052;-77
2022/08/05 02:34:40;;;;;;;3.17;1.70;;;;;;;19.11;72.50;101651.13;5036770;28;20364;-77
2022/08/05 02:37:08;;;;;;;4.35;2.10;;;;;;;19.08;73.06;101651.31;5019005;28;20347;-77
2022/08/05 02:39:38;;;;;;;4.22;1.50;;;;;;;19.04;73.18;101645.34;5036089;28;20234;-77
2022/08/05 02:42:06;;;;;;;2.78;1.65;;;;;;;19.06;73.09;101647.91;5036565;28;20096;-78
2022/08/05 02:44:35;;;;;;;1.83;1.50;;;;;;;19.06;73.06;101642.59;5030159;28;20333;-77
2022/08/05 02:47:02;;;;;;;4.43;1.70;;;;;;;19.05;72.92;101646.22;5016676;28;20317;-77
2022/08/05 02:49:31;;;;;;;2.63;1.70;;;;;;;19.06;73.06;101653.22;5031576;28;20391;-77
2022/08/05 02:51:57;;;;;;;4.30;1.63;;;;;;;19.06;72.95;101650.56;5048238;28;20030;-77
2022/08/05 02:54:23;;;;;;;3.10;1.45;;;;;;;19.06;73.20;101647.91;5018676;28;20041;-74
2022/08/05 02:56:50;;;;;;;2.95;1.60;;;;;;;19.07;73.25;101655.78;5054047;28;20153;-74
2022/08/05 02:59:17;;;;;;;3.20;1.73;;;;;;;19.08;73.10;101661.94;5020335;28;20036;-74
2022/08/05 03:01:43;;;;;;;3.85;1.60;;;;;;;19.06;73.15;101664.69;5022222;28;20033;-74
2022/08/05 03:04:13;;;;;;;3.35;1.60;;;;;;;19.06;73.13;101669.16;5022256;28;20383;-74
2022/08/05 03:06:40;;;;;;;3.83;2.13;;;;;;;19.04;73.13;101661.28;5021567;28;20068;-74
2022/08/05 03:09:06;;;;;;;2.80;1.60;;;;;;;19.03;73.08;101680.81;5021753;28;20101;-74
2022/08/05 03:11:31;;;;;;;6.97;2.00;;;;;;;19.04;73.24;101681.66;5053481;28;20033;-74
2022/08/05 03:13:56;;;;;;;2.22;1.60;;;;;;;19.02;73.19;101676.44;5022003;28;20057;-74
2022/08/05 03:16:22;;;;;;;3.22;1.70;;;;;;;19.03;72.98;101678.16;5004184;28;20034;-74
2022/08/05 03:18:47;;;;;;;3.35;1.88;;;;;;;19.03;72.97;101675.50;5021600;28;20068;-74
2022/08/05 03:21:13;;;;;;;3.25;1.48;;;;;;;19.02;72.87;101679.09;5021203;28;20089;-74
2022/08/05 03:23:41;;;;;;;2.70;1.45;;;;;;;19.02;72.73;101672.94;5021320;28;20033;-74
2022/08/05 03:26:07;;;;;;;2.58;1.50;;;;;;;18.99;72.75;101674.84;5053433;28;20026;-74
2022/08/05 03:28:32;;;;;;;4.47;1.23;;;;;;;18.97;72.74;101675.88;5020606;28;20073;-74
2022/08/05 03:31:03;;;;;;;3.08;1.50;;;;;;;18.96;72.92;101674.19;5020248;28;20026;-74
2022/08/05 03:33:29;;;;;;;2.00;1.50;;;;;;;18.96;72.77;101675.03;5019224;28;20052;-74
2022/08/05 03:35:57;;;;;;;1.75;1.17;;;;;;;18.96;72.45;101682.16;5021011;28;20037;-74
2022/08/05 03:38:23;;;;;;;2.50;1.10;;;;;;;18.95;72.42;101683.09;5020900;28;20038;-74
2022/08/05 03:40:49;;;;;;;4.90;1.52;;;;;;;18.95;72.20;101688.41;5021003;28;20056;-74
2022/08/05 03:43:16;;;;;;;4.75;1.52;;;;;;;18.93;72.30;101690.31;5020667;28;20270;-74
2022/08/05 03:45:42;;;;;;;2.08;1.30;;;;;;;18.91;72.25;101695.69;5021493;28;20125;-74
2022/08/05 03:48:07;;;;;;;4.15;1.20;;;;;;;18.89;72.31;101684.34;5021050;28;20262;-74
2022/08/05 03:50:59;;;;;;;2.83;1.27;;;;;;;18.89;72.21;101679.03;5019642;28;20093;-74
2022/08/05 03:53:33;;;;;;;2.63;1.30;;;;;;;18.88;72.29;101677.34;4983846;28;20045;-74
2022/08/05 03:56:25;;;;;;;3.10;1.60;;;;;;;18.86;72.27;101681.00;5020054;28;20092;-74
2022/08/05 03:58:54;;;;;;;2.05;1.33;;;;;;;18.86;72.12;101686.31;5010348;28;20044;-74
2022/08/05 04:01:21;;;;;;;1.98;1.58;;;;;;;18.85;72.15;101696.09;5020616;28;20093;-74
2022/08/05 04:03:49;;;;;;;1.73;1.42;;;;;;;18.85;72.20;101693.44;5019406;28;20033;-74
2022/08/05 04:06:17;;;;;;;3.65;1.23;;;;;;;18.85;72.14;101687.28;5020110;28;20030;-74
2022/08/05 04:08:43;;;;;;;2.10;1.40;;;;;;;18.84;72.05;101682.91;5021286;28;20048;-74
2022/08/05 04:11:09;;;;;;;1.50;1.33;;;;;;;18.82;72.28;101683.00;5024832;28;20033;-74
2022/08/05 04:13:38;;;;;;;2.55;1.48;;;;;;;18.81;72.30;101673.34;5024141;28;20352;-74
2022/08/05 04:16:06;;;;;;;2.58;1.60;;;;;;;18.80;72.14;101679.56;5024785;28;20030;-74
2022/08/05 04:18:31;;;;;;;2.28;1.50;;;;;;;18.79;72.43;101678.72;5006613;28;20057;-74
2022/08/05 04:20:57;;;;;;;3.13;1.40;;;;;;;18.78;72.16;101677.00;5023316;28;20065;-74
2022/08/05 04:23:26;;;;;;;2.20;1.30;;;;;;;18.77;72.07;101674.44;5024379;28;20060;-74
2022/08/05 04:25:52;;;;;;;2.75;1.30;;;;;;;18.76;72.37;101675.41;5023108;28;20052;-74
2022/08/05 04:28:18;;;;;;;5.43;1.90;;;;;;;18.76;72.09;101678.06;5024064;28;20053;-74
2022/08/05 04:30:45;;;;;;;1.35;1.10;;;;;;;18.74;72.17;101682.63;5024398;28;20069;-74
2022/08/05 04:33:11;;;;;;;2.92;1.67;;;;;;;18.72;72.16;101680.06;5024176;28;20049;-74
2022/08/05 04:35:36;;;;;;;2.60;1.50;;;;;;;18.70;72.26;101678.41;5023139;28;20046;-74
2022/08/05 04:38:02;;;;;;;3.20;1.42;;;;;;;18.68;72.26;101675.88;5023158;28;20038;-74
2022/08/05 04:40:27;;;;;;;4.35;1.75;;;;;;;18.67;72.14;101675.97;5023520;28;20310;-74
2022/08/05 04:42:53;;;;;;;1.73;1.60;;;;;;;18.66;72.00;101674.25;5024128;28;20215;-74
2022/08/05 04:45:18;;;;;;;4.72;1.42;;;;;;;18.65;72.29;101672.56;5006651;28;20052;-74
2022/08/05 04:47:43;;;;;;;4.20;1.42;;;;;;;18.64;72.24;101674.34;5030637;28;20373;-74
2022/08/05 04:50:09;;;;;;;3.25;1.70;;;;;;;18.63;72.03;101677.97;5037487;28;20292;-74
2022/08/05 04:52:34;;;;;;;2.50;1.35;;;;;;;18.61;72.13;101675.41;5021686;28;20269;-74
2022/08/05 04:55:00;;;;;;;1.95;1.23;;;;;;;18.60;72.17;101672.84;5022255;28;20290;-74
2022/08/05 04:57:25;;;;;;;2.67;1.52;;;;;;;18.58;72.18;101667.63;5021825;28;20109;-74
2022/08/05 04:59:51;;;;;;;3.30;1.40;;;;;;;18.58;72.17;101669.44;5053912;28;20333;-74
2022/08/05 05:02:16;;;;;;;1.67;1.20;;;;;;;18.57;72.11;101667.72;5022017;28;20068;-74
2022/08/05 05:04:42;;;;;;;1.90;1.30;;;;;;;18.56;72.08;101669.53;5054091;28;20034;-74
2022/08/05 05:07:07;;;;;;;3.47;1.40;;;;;;;18.55;72.19;101678.41;5037308;28;20084;-74
2022/08/05 05:09:32;;;;;;;2.95;1.25;;;;;;;18.55;71.70;101677.56;5053009;28;20260;-74
2022/08/05 05:11:58;;;;;;;1.38;1.27;;;;;;;18.54;72.01;101678.53;5021811;28;20095;-74
2022/08/05 05:14:23;;;;;;;2.90;1.58;;;;;;;18.53;71.97;101677.66;5021816;28;20040;-74
2022/08/05 05:16:49;;;;;;;2.53;1.38;;;;;;;18.52;72.22;101680.41;5022560;28;20038;-74
2022/08/05 05:19:14;;;;;;;2.47;1.45;;;;;;;18.49;72.13;101686.75;5020278;28;20149;-74
2022/08/05 05:21:39;;;;;;;2.90;1.85;;;;;;;18.48;72.02;101682.41;5021320;28;20038;-74
2022/08/05 05:24:08;;;;;;;4.78;1.38;;;;;;;18.48;72.33;101686.84;5053378;28;20092;-74
2022/08/05 05:26:33;;;;;;;;;;;;;;;18.46;72.14;101696.69;5021468;28;20272;-74
2022/08/05 05:28:59;;;;;;;3.87;1.30;;;;;;;18.46;71.91;101688.75;5053399;28;19956;-74
2022/08/05 05:31:24;;;;;;;2.55;1.60;;;;;;;18.45;72.05;101693.19;5032200;28;20052;-74
2022/08/05 05:33:50;;;;;;;2.30;1.25;;;;;;;18.42;72.17;101694.22;5012404;28;20033;-74
2022/08/05 05:36:15;;;;;;;2.95;1.10;;;;;;;18.41;72.14;101697.84;5029508;28;20344;-74
2022/08/05 05:38:40;;;;;;;2.63;1.30;;;;;;;18.39;72.19;101690.91;5053207;28;20044;-74
2022/08/05 05:41:06;;;;;;;2.92;1.20;;;;;;;18.38;72.38;101697.16;5021724;28;20343;-74
2022/08/05 05:43:31;;;;;;;2.30;1.40;;;;;;;18.36;72.09;101696.41;5019888;28;20072;-74
2022/08/05 05:45:56;;;;;;;2.10;1.05;;;;;;;18.34;72.18;101695.66;5021607;28;20100;-74
2022/08/05 05:48:22;;;;;;;1.58;1.30;;;;;;;18.33;71.98;101692.13;5036618;28;20060;-74
2022/08/05 05:50:49;;;;;;;2.72;1.30;;;;;;;18.34;71.65;101703.59;5036691;28;20046;-74
2022/08/05 05:53:15;;;;;;;2.28;1.30;;;;;;;18.31;71.59;101707.28;5021589;28;20040;-74
2022/08/05 05:55:40;;;;;;;1.42;1.10;;;;;;;18.32;71.57;101718.72;5053522;28;20045;-74
2022/08/05 05:58:05;;;;;;;1.80;1.23;;;;;;;18.32;71.83;101719.59;5019692;28;20036;-74
2022/08/05 06:00:31;;;;;;;2.15;1.00;;;;;;;18.31;71.85;101715.22;5052767;28;20045;-74
2022/08/05 06:02:56;;;;;;;2.63;1.20;;;;;;;18.30;71.70;101717.97;5036473;28;20061;-74
2022/08/05 06:05:21;;;;;;;1.85;1.13;;;;;;;18.30;71.69;101728.56;5035669;28;20034;-74
2022/08/05 06:07:48;;;;;;;1.65;1.20;;;;;;;18.29;71.48;101722.41;5020885;28;20026;-74
2022/08/05 06:10:14;;;;;;;2.88;1.20;;;;;;;18.29;71.50;101714.47;5020762;28;20033;-74
2022/08/05 06:12:40;;;;;;;2.20;1.08;;;;;;;18.29;71.41;101713.63;5021313;28;20034;-74
2022/08/05 06:15:06;;;;;;;1.35;0.93;;;;;;;18.28;71.37;101722.50;5021241;28;20030;-74
2022/08/05 06:17:31;;;;;;;4.57;0.80;;;;;;;18.27;71.35;101726.97;5035938;28;20144;-74
2022/08/05 06:19:57;;;;;;;2.97;0.77;;;;;;;18.28;71.14;101725.16;5036524;28;20045;-74
2022/08/05 06:22:25;;;;;;;1.35;0.98;;;;;;;18.29;71.26;101729.53;5036094;28;20033;-74
2022/08/05 06:24:51;;;;;;;1.15;0.80;;;;;;;18.29;71.09;101735.69;5021223;28;20625;-74
2022/08/05 06:27:16;;;;;;;1.00;0.80;;;;;;;18.30;71.10;101728.56;5021352;28;20217;-74
2022/08/05 06:29:41;;;;;;;0.90;0.70;;;;;;;18.30;70.83;101732.09;5021207;28;20033;-74
2022/08/05 06:32:08;;;;;;;2.67;1.15;;;;;;;18.29;71.05;101737.47;5034904;28;20033;-74
2022/08/05 06:34:33;;;;;;;0.95;0.70;;;;;;;18.30;70.96;101734.75;5031465;28;20029;-74
2022/08/05 06:36:59;;;;;;;1.65;0.90;;;;;;;18.33;71.19;101739.84;5038982;28;20102;-74
2022/08/05 06:39:25;;;;;;;5.25;0.80;;;;;;;18.32;71.10;101735.50;5040501;28;20329;-74
2022/08/05 06:41:50;;;;;;;1.83;0.82;;;;;;;18.33;70.89;101739.84;5039494;28;20025;-74
2022/08/05 06:44:15;;;;;;;0.60;0.60;;;;;;;18.34;71.11;101740.72;5039962;28;20230;-74
2022/08/05 06:46:41;;;;;;;0.70;0.68;;;;;;;18.34;70.71;101740.72;5039993;28;20333;-74
2022/08/05 06:49:06;;;;;;;0.77;0.75;;;;;;;18.34;70.95;101738.91;5038544;28;20029;-74
2022/08/05 06:51:32;;;;;;;0.70;0.70;;;;;;;18.35;70.92;101742.41;5029777;28;20071;-74
2022/08/05 06:53:59;;;;;;;1.42;0.80;;;;;;;18.35;70.56;101739.75;5039880;28;20044;-74
2022/08/05 06:56:24;;;;;;;1.95;0.80;;;;;;;18.37;70.80;101753.78;5040313;28;20347;-74
2022/08/05 06:58:50;;;;;;;2.67;0.70;;;;;;;18.38;70.67;101750.19;5038678;28;20041;-74
2022/08/05 07:01:15;;;;;;;1.80;0.80;;;;;;;18.38;70.50;101747.53;5038862;28;20037;-74
2022/08/05 07:03:43;;;;;;;1.38;0.70;;;;;;;18.40;70.14;101756.25;5038907;28;20104;-74
2022/08/05 07:06:08;;;;;;;0.70;0.70;;;;;;;18.41;70.17;101757.97;5019972;28;20030;-74
2022/08/05 07:08:34;;;;;;;2.00;0.60;;;;;;;18.42;69.95;101759.66;5069212;28;20213;-74
2022/08/05 07:10:59;;;;;;;0.85;0.45;;;;;;;18.42;69.73;101763.16;5020889;28;20260;-74
2022/08/05 07:18:53;;;;;;;2.05;0.80;;;;;;;18.46;68.90;101769.16;5040782;28;20367;-74
2022/08/05 07:21:18;;;;;;;0.47;0.47;;;;;;;18.49;68.81;101768.97;5040659;28;20025;-74
2022/08/05 07:23:44;;;;;;;0.60;0.40;;;;;;;18.52;68.46;101776.75;5039937;28;20044;-74
2022/08/05 07:26:09;;;;;;;2.30;0.52;;;;;;;18.53;67.82;101777.59;5041247;28;20033;-74
2022/08/05 07:28:35;;;;;;;2.10;0.80;;;;;;;18.53;67.06;101781.09;5039722;28;20041;-74
2022/08/05 07:31:00;;;;;;;0.45;0.40;;;;;;;18.54;67.16;101790.78;5042071;28;20022;-74
2022/08/05 07:33:26;;;;;;;1.73;0.50;;;;;;;18.54;67.50;101793.44;5036505;28;20029;-74
2022/08/05 07:35:51;;;;;;;2.60;0.60;;;;;;;18.57;67.65;101800.34;5047246;28;20110;-74
2022/08/05 07:38:17;;;;;;;0.90;0.60;;;;;;;18.58;67.69;101807.38;5041211;28;20231;-74
2022/08/05 07:40:42;;;;;;;2.63;1.02;;;;;;;18.60;68.56;101810.78;5040085;28;20087;-74
2022/08/05 07:43:08;;;;;;;1.65;0.57;;;;;;;18.61;68.25;101807.19;5007573;28;20262;-74
2022/08/05 07:45:34;;;;;;;0.50;0.45;;;;;;;18.61;68.16;101810.69;5023928;28;20364;-74
2022/08/05 07:47:59;;;;;;;1.35;0.70;;;;;;;18.64;68.04;101808.81;5041033;28;20037;-74
2022/08/05 07:50:25;;;;;;;2.65;0.60;;;;;;;18.65;67.64;101819.31;5024068;28;20157;-74
2022/08/05 07:52:50;;;;;;;0.88;0.47;;;;;;;18.67;67.23;101824.56;5041103;28;20033;-74
2022/08/05 07:55:15;;;;;;;1.55;0.60;;;;;;;18.69;67.40;101827.97;5043982;28;20096;-74
2022/08/05 07:57:41;;;;;;;0.40;0.40;;;;;;;18.68;67.01;101829.78;5044237;28;20067;-74
2022/08/05 08:00:07;;;;;;;1.35;0.30;;;;;;;18.68;66.34;101836.84;5044307;28;20127;-74
2022/08/05 08:02:33;;;;;;;2.13;0.40;;;;;;;18.68;66.30;101839.50;5043578;28;20049;-74
2022/08/05 08:05:00;;;;;;;0.50;0.45;;;;;;;18.68;65.98;101845.69;5044180;28;20030;-74
2022/08/05 08:07:26;;;;;;;0.43;0.43;;;;;;;18.69;66.28;101857.16;5027463;28;20248;-74
2022/08/05 08:09:52;;;;;;;3.10;0.43;;;;;;;18.69;66.27;101858.00;5045362;28;20112;-74
2022/08/05 08:12:18;;;;;;;1.52;0.60;;;;;;;18.69;66.35;101863.28;5027580;28;20256;-74
2022/08/05 08:14:44;;;;;;;2.22;0.60;;;;;;;18.69;66.47;101868.59;5045632;28;20037;-74
2022/08/05 08:17:10;;;;;;;0.60;0.40;;;;;;;18.68;66.46;101868.69;5045270;28;20033;-74
2022/08/05 08:19:36;;;;;;;2.00;0.50;;;;;;;18.68;66.39;101866.91;5045161;28;20034;-74
2022/08/05 08:22:02;;;;;;;0.75;0.50;;;;;;;18.67;66.43;101870.50;5023947;28;20030;-74
2022/08/05 08:24:29;;;;;;;1.80;0.60;;;;;;;18.66;66.32;101870.59;5034868;28;20083;-74
2022/08/05 08:26:54;;;;;;;1.27;0.50;;;;;;;18.67;66.89;101875.81;5043271;28;20051;-74
2022/08/05 08:29:19;;;;;;;1.95;0.40;;;;;;;18.66;67.04;101881.19;5043627;28;20037;-74
2022/08/05 08:31:45;;;;;;;1.17;0.60;;;;;;;18.67;67.15;101870.50;5043036;28;20275;-74
2022/08/05 08:34:10;;;;;;;1.90;0.73;;;;;;;18.67;67.02;101885.56;5035043;28;20026;-74
2022/08/05 08:36:36;;;;;;;1.90;0.60;;;;;;;18.67;67.69;101880.25;5039630;28;20321;-74
2022/08/05 08:39:01;;;;;;;1.27;0.52;;;;;;;18.68;67.66;101890.78;5043240;28;20026;-74
2022/08/05 08:41:32;;;;;;;0.60;0.57;;;;;;;18.68;67.81;101889.91;5043197;28;20037;-74
2022/08/05 08:43:58;;;;;;;0.85;0.40;;;;;;;18.69;67.97;101899.59;5044170;28;20033;-74
2022/08/05 08:46:26;;;;;;;0.95;0.40;;;;;;;18.68;67.55;101911.13;5042310;28;20025;-74
2022/08/05 08:48:53;;;;;;;0.98;0.82;;;;;;;18.68;67.02;101905.84;5045055;28;20056;-74
2022/08/05 08:51:20;;;;;;;1.92;0.60;;;;;;;18.66;66.94;101908.56;5043639;28;20051;-74
2022/08/05 08:53:45;;;;;;;1.63;0.60;;;;;;;18.66;67.08;101908.56;5044336;28;20362;-74
2022/08/05 08:56:11;;;;;;;1.98;0.68;;;;;;;18.65;66.59;101914.00;5039158;28;20112;-74
2022/08/05 08:58:36;;;;;;;1.55;0.40;;;;;;;18.64;66.69;101923.72;5040693;28;20037;-74
2022/08/05 09:01:02;;;;;;;2.22;0.38;;;;;;;18.64;66.66;101922.88;5042088;28;20100;-74
2022/08/05 09:03:27;;;;;;;0.75;0.68;;;;;;;18.63;66.70;101926.47;5042194;28;20033;-74
2022/08/05 09:05:53;;;;;;;1.15;0.60;;;;;;;18.64;66.74;101930.84;5024923;28;20068;-74
2022/08/05 09:08:18;;;;;;;1.65;0.60;;;;;;;18.60;65.62;101938.97;5042382;28;20040;-74
2022/08/05 09:10:44;;;;;;;3.45;0.50;;;;;;;18.60;65.89;101946.91;5040194;28;20061;-74
2022/08/05 09:13:14;;;;;;;3.33;0.50;;;;;;;18.59;66.35;101947.88;5021406;28;20045;-74
2022/08/05 09:15:40;;;;;;;0.32;0.30;;;;;;;18.59;65.46;101953.19;5037156;28;20045;-74
2022/08/05 09:18:07;;;;;;;0.45;0.40;;;;;;;18.59;65.36;101950.53;5040582;28;20043;-74
2022/08/05 09:20:33;;;;;;;1.65;0.82;;;;;;;18.59;65.17;101949.66;5041216;28;20048;-74
2022/08/05 09:23:11;;;;;;;0.38;0.38;;;;;;;18.57;64.43;101941.81;5057984;28;20309;-74
2022/08/05 09:25:42;;;;;;;1.38;0.57;;;;;;;18.56;64.55;101945.41;5041216;28;20348;-74
2022/08/05 09:28:23;;;;;;;0.73;0.38;;;;;;;18.58;65.13;101953.28;5040548;28;20049;-74
2022/08/05 09:31:07;;;;;;;0.80;0.50;;;;;;;18.55;64.45;101956.94;5030564;28;20033;-74
2022/08/05 09:33:46;;;;;;;1.17;0.43;;;;;;;18.56;64.55;101957.81;5038590;28;20033;-74
2022/08/05 09:36:11;;;;;;;0.50;0.40;;;;;;;18.55;64.53;101958.75;5037784;28;20040;-74
2022/08/05 09:38:37;;;;;;;0.80;0.28;;;;;;;18.54;64.88;101965.00;5041885;28;20029;-74
2022/08/05 09:41:08;;;;;;;0.70;0.40;;;;;;;18.54;65.32;101968.50;5057398;28;20105;-74
2022/08/05 09:43:36;;;;;;;0.30;0.20;;;;;;;18.54;64.47;101975.63;5041151;28;20101;-74
2022/08/05 09:46:04;;;;;;;1.75;0.30;;;;;;;18.53;64.59;101980.03;5041414;28;20033;-74
2022/08/05 09:48:31;;;;;;;0.82;0.32;;;;;;;18.54;64.25;101980.91;5040820;28;20038;-74
2022/08/05 09:51:02;;;;;;;1.75;0.70;;;;;;;18.50;64.05;101977.59;5041578;28;20028;-74
2022/08/05 09:53:29;;;;;;;0.50;0.20;;;;;;;18.50;64.55;101976.72;5039777;28;20029;-74
2022/08/05 09:55:58;;;;;;;1.23;0.40;;;;;;;18.50;63.96;101982.88;5039928;28;20048;-74
2022/08/05 09:58:23;;;;;;;;;;;;;;;18.49;64.10;101985.63;5041565;28;20187;-74
2022/08/05 10:00:55;;;;;;;0.45;0.38;;;;;;;18.49;64.25;101989.13;5041458;28;19944;-74
2022/08/05 10:03:21;;;;;;;0.85;0.30;;;;;;;18.50;64.33;101995.28;5040988;28;20200;-74
2022/08/05 10:06:00;;;;;;;0.40;0.30;;;;;;;18.50;65.15;101998.81;5041609;28;20104;-74
2022/08/05 10:08:25;;;;;;;1.00;0.40;;;;;;;18.50;64.87;102000.59;5038688;28;20052;-74
2022/08/05 10:10:51;;;;;;;1.48;0.25;;;;;;;18.50;64.24;101995.28;5023901;28;20782;-74
2022/08/05 10:13:45;;;;;;;0.98;0.30;;;;;;;18.49;64.29;102005.03;5040779;28;20416;-74
2022/08/05 10:16:35;;;;;;;0.45;0.30;;;;;;;18.48;63.97;102003.34;5005752;28;20076;-74
2022/08/05 10:19:00;;;;;;;1.45;0.32;;;;;;;18.48;63.68;101998.03;5040837;28;20021;-74
2022/08/05 10:21:27;;;;;;;1.23;0.30;;;;;;;18.49;63.75;101998.88;5023420;28;20030;-74
2022/08/05 10:23:53;;;;;;;0.82;0.40;;;;;;;18.49;63.98;101996.22;5039420;28;20045;-74
2022/08/05 10:26:19;;;;;;;3.15;0.40;;;;;;;18.48;63.63;101998.03;5041024;28;20045;-74
2022/08/05 10:28:45;;;;;;;0.25;0.25;;;;;;;18.50;63.43;102004.13;5039823;28;20041;-74
2022/08/05 10:31:13;;;;;;;0.32;0.30;;;;;;;18.49;62.98;102001.53;5022873;28;20030;-74
2022/08/05 10:33:38;;;;;;;0.63;0.35;;;;;;;18.49;62.82;102002.38;5035608;28;20112;-74
2022/08/05 10:36:05;;;;;;;0.38;0.30;;;;;;;18.49;62.15;102010.34;5031870;28;20048;-74
2022/08/05 10:38:32;;;;;;;0.57;0.40;;;;;;;18.49;62.29;101999.72;5040021;28;20186;-74
2022/08/05 10:41:26;;;;;;;0.35;0.32;;;;;;;18.50;62.74;102011.19;5041039;28;20367;-74
2022/08/05 10:44:14;;;;;;;0.82;0.40;;;;;;;18.49;61.77;102002.38;5028918;28;20367;-74
2022/08/05 10:46:44;;;;;;;1.65;0.30;;;;;;;18.49;61.60;102006.84;5040861;28;20029;-74
2022/08/05 10:49:10;;;;;;;0.47;0.30;;;;;;;18.49;61.01;102007.69;5040479;28;20037;-74
2022/08/05 10:51:46;;;;;;;0.40;0.30;;;;;;;18.50;62.02;102020.03;5039308;28;20347;-74
2022/08/05 10:54:13;;;;;;;0.85;0.20;;;;;;;18.52;62.72;102018.13;5039205;28;20058;-74
2022/08/05 10:56:45;;;;;;;0.25;0.25;;;;;;;18.54;61.69;102018.06;5039513;28;20386;-74
2022/08/05 10:59:16;;;;;;;0.82;0.40;;;;;;;18.54;60.94;102026.03;5041495;28;20067;-74
2022/08/05 11:01:43;;;;;;;0.98;0.40;;;;;;;18.55;60.85;102025.06;5042379;28;20021;-74
2022/08/05 11:04:14;;;;;;;0.95;0.30;;;;;;;18.55;61.07;102027.72;5042135;28;20086;-74
2022/08/05 11:07:05;;;;;;;1.17;0.40;;;;;;;18.56;60.96;102026.78;5041984;28;20048;-74
2022/08/05 11:09:48;;;;;;;0.45;0.38;;;;;;;18.58;61.09;102035.50;5038744;28;20049;-74
2022/08/05 11:12:23;;;;;;;0.60;0.32;;;;;;;18.60;61.14;102038.94;5041647;28;20053;-74
2022/08/05 11:15:04;;;;;;;0.35;0.30;;;;;;;18.59;60.47;102043.38;5040781;28;20021;-74
2022/08/05 11:17:32;;;;;;;1.63;0.55;;;;;;;18.60;60.89;102039.78;5040955;28;20037;-74
2022/08/05 11:19:58;;;;;;;0.30;0.30;;;;;;;18.61;61.46;102045.97;5041502;28;20017;-74
2022/08/05 11:22:47;;;;;;;0.35;0.30;;;;;;;18.63;62.99;102046.72;5041141;28;20045;-74
2022/08/05 11:25:31;;;;;;;1.40;0.63;;;;;;;18.65;63.23;102044.84;5041733;28;20025;-74
2022/08/05 11:28:11;;;;;;;2.10;0.45;;;;;;;18.66;62.69;102051.00;5041740;28;20276;-74
2022/08/05 11:30:55;;;;;;;1.33;0.40;;;;;;;18.68;64.41;102052.63;5041587;28;20037;-74
2022/08/05 11:33:47;;;;;;;0.30;0.30;;;;;;;18.67;61.50;102050.91;5038819;28;20044;-74
2022/08/05 11:36:15;;;;;;;0.88;0.40;;;;;;;18.68;61.75;102060.59;5062607;28;20042;-74